Terminal Aerodrome Forecast
Issued by NWS Nashville, TN

Home | Current Version | Previous Version | Text Only | Print | Product List | Glossary On
Versions: 1 2 3 4 5 6 7 8 9 10 11 12 13 14 15 16 17 18 19 20 21 22 23 24 25
694
FTUS44 KOHX 291742
TAFCSV
TAF
KCSV 291742Z 2918/3018 01005KT P6SM SCT150
     FM300000 03004KT P6SM -SHRA BKN100
     FM300200 04003KT P6SM OVC080
     FM300900 00000KT 5SM -SHRA BR VCTS SCT025CB BKN040=

USA.gov is the U.S. government's official web portal to all federal, state and local government web resources and services.